createdAt,value
2022-12-13T00:00:34.559Z,0.77
2022-12-13T00:03:01.087Z,0.75
2022-12-13T00:05:27.588Z,1.45
2022-12-13T00:07:54.194Z,0.85
2022-12-13T00:10:20.769Z,2.03
2022-12-13T00:12:47.313Z,0.77
2022-12-13T00:15:14.171Z,1.33
2022-12-13T00:17:41.006Z,1.10
2022-12-13T00:20:07.747Z,0.68
2022-12-13T00:22:34.277Z,0.90
2022-12-13T00:25:00.819Z,2.17
2022-12-13T00:27:27.379Z,0.73
2022-12-13T00:29:53.910Z,1.77
2022-12-13T00:32:20.503Z,1.40
2022-12-13T00:34:47.183Z,0.85
2022-12-13T00:37:13.732Z,1.05
2022-12-13T00:39:40.266Z,0.70
2022-12-13T00:42:06.822Z,0.93
2022-12-13T00:44:33.501Z,1.10
2022-12-13T00:47:00.059Z,0.93
2022-12-13T00:49:26.563Z,1.02
2022-12-13T00:51:53.093Z,0.60
2022-12-13T00:54:19.664Z,0.60
2022-12-13T00:56:46.196Z,0.63
2022-12-13T00:59:13.920Z,4.70
2022-12-13T01:01:40.518Z,4.03
2022-12-13T01:04:07.685Z,0.55
2022-12-13T01:06:44.912Z,4.72
2022-12-13T01:09:22.026Z,3.70
2022-12-13T01:11:49.169Z,0.60
2022-12-13T01:14:16.701Z,0.85
2022-12-13T01:16:43.335Z,5.80
2022-12-13T01:19:09.935Z,1.38
2022-12-13T01:21:36.484Z,0.63
2022-12-13T01:24:04.326Z,0.60
2022-12-13T01:26:31.195Z,1.60
2022-12-13T01:28:58.114Z,0.55
2022-12-13T01:31:24.691Z,0.52
2022-12-13T01:33:51.303Z,0.40
2022-12-13T01:36:19.104Z,0.73
2022-12-13T01:38:45.987Z,3.13
2022-12-13T01:41:18.075Z,0.82
2022-12-13T01:43:44.829Z,0.60
2022-12-13T01:46:12.158Z,1.95
2022-12-13T01:48:57.478Z,0.55
2022-12-13T01:51:27.696Z,1.55
2022-12-13T01:53:55.924Z,4.30
2022-12-13T01:56:33.848Z,0.70
2022-12-13T01:59:00.866Z,0.70
2022-12-13T02:01:28.268Z,0.60
2022-12-13T02:03:54.982Z,1.10
2022-12-13T02:06:32.677Z,0.70
2022-12-13T02:08:59.726Z,0.75
2022-12-13T02:11:27.059Z,0.82
2022-12-13T02:13:53.926Z,1.65
2022-12-13T02:16:35.411Z,0.82
2022-12-13T02:19:12.885Z,0.95
2022-12-13T02:21:58.124Z,1.02
2022-12-13T02:24:50.312Z,0.60
2022-12-13T02:27:32.252Z,1.00
2022-12-13T02:30:01.523Z,0.77
2022-12-13T02:32:30.316Z,2.05
2022-12-13T02:35:00.361Z,3.50
2022-12-13T02:37:45.205Z,0.80
2022-12-13T02:40:24.459Z,1.33
2022-12-13T02:42:54.811Z,1.95
2022-12-13T02:45:26.467Z,0.98
2022-12-13T02:47:54.812Z,0.68
2022-12-13T02:50:21.917Z,1.02
2022-12-13T02:52:49.157Z,2.95
2022-12-13T02:55:16.968Z,1.05
2022-12-13T02:57:44.916Z,0.90
2022-12-13T03:00:22.488Z,0.90
2022-12-13T03:02:49.120Z,0.70
2022-12-13T03:05:18.706Z,0.60
2022-12-13T03:07:50.797Z,0.90
2022-12-13T03:10:30.306Z,0.85
2022-12-13T03:13:07.005Z,0.90
2022-12-13T03:15:56.849Z,3.03
2022-12-13T03:18:25.149Z,1.90
2022-12-13T03:20:56.144Z,1.63
2022-12-13T03:23:23.506Z,0.80
2022-12-13T03:25:51.716Z,0.88
2022-12-13T03:28:18.232Z,1.17
2022-12-13T03:30:44.846Z,1.98
2022-12-13T03:33:11.386Z,3.13
2022-12-13T03:35:44.407Z,1.05
2022-12-13T03:38:21.231Z,1.60
2022-12-13T03:40:50.734Z,1.77
2022-12-13T03:43:22.028Z,1.77
2022-12-13T03:45:49.597Z,1.65
2022-12-13T03:48:22.773Z,2.15
2022-12-13T03:50:50.054Z,1.48
2022-12-13T03:53:22.036Z,0.98
2022-12-13T03:55:58.256Z,2.15
2022-12-13T03:58:36.353Z,2.05
2022-12-13T04:01:11.413Z,2.45
2022-12-13T04:03:38.407Z,1.58
2022-12-13T04:06:05.536Z,0.75
2022-12-13T04:08:32.632Z,1.05
2022-12-13T04:10:59.339Z,1.58
2022-12-13T04:13:25.863Z,0.70
2022-12-13T04:15:52.477Z,2.17
2022-12-13T04:18:19.555Z,4.40
2022-12-13T04:20:46.833Z,4.13
2022-12-13T04:23:13.612Z,27.77
2022-12-13T04:25:40.212Z,3.15
2022-12-13T04:28:06.835Z,4.85
2022-12-13T04:30:33.407Z,5.72
2022-12-13T04:32:59.964Z,2.53
2022-12-13T04:35:26.615Z,10.00
2022-12-13T04:37:53.387Z,3.90
2022-12-13T04:40:21.797Z,1.48
2022-12-13T04:42:48.677Z,1.90
2022-12-13T04:45:21.230Z,1.52
2022-12-13T04:47:47.754Z,3.42
2022-12-13T04:50:14.199Z,2.33
2022-12-13T04:52:40.763Z,2.47
2022-12-13T04:55:07.539Z,1.00
2022-12-13T04:57:34.069Z,2.40
2022-12-13T05:00:00.528Z,1.70
2022-12-13T05:02:27.097Z,3.05
2022-12-13T05:04:54.108Z,2.20
2022-12-13T05:07:21.531Z,1.70
2022-12-13T05:09:48.119Z,1.58
2022-12-13T05:12:22.421Z,3.97
2022-12-13T05:14:50.117Z,1.35
2022-12-13T05:17:16.566Z,1.45
2022-12-13T05:19:43.086Z,2.50
2022-12-13T05:22:13.619Z,1.70
2022-12-13T05:24:44.598Z,2.15
2022-12-13T05:27:25.098Z,1.42
2022-12-13T05:30:05.313Z,1.10
2022-12-13T05:32:43.465Z,1.10
2022-12-13T05:35:11.360Z,2.80
2022-12-13T05:37:37.807Z,1.42
2022-12-13T05:40:04.379Z,1.60
2022-12-13T05:42:30.899Z,2.45
2022-12-13T05:44:57.408Z,1.95
2022-12-13T05:47:23.884Z,2.03
2022-12-13T05:49:50.338Z,1.77
2022-12-13T05:52:20.900Z,1.50
2022-12-13T05:57:13.937Z,2.33
2022-12-13T05:59:40.391Z,1.23
2022-12-13T06:02:07.035Z,1.30
2022-12-13T06:04:33.628Z,3.47
2022-12-13T06:07:00.107Z,1.88
2022-12-13T06:09:26.605Z,1.45
2022-12-13T06:12:00.956Z,1.13
2022-12-13T06:14:28.453Z,1.23
2022-12-13T06:16:55.021Z,1.00
2022-12-13T06:19:22.346Z,4.32
2022-12-13T06:21:49.457Z,1.25
2022-12-13T06:24:19.632Z,1.65
2022-12-13T06:26:46.467Z,1.00
2022-12-13T06:29:22.507Z,2.20
2022-12-13T06:32:03.389Z,1.25
2022-12-13T06:34:34.339Z,2.92
2022-12-13T06:39:32.271Z,2.03
2022-12-13T06:42:00.255Z,2.55
2022-12-13T06:44:26.734Z,1.33
2022-12-13T06:46:53.222Z,1.60
2022-12-13T06:49:39.392Z,1.55
2022-12-13T06:52:06.014Z,0.95
2022-12-13T06:54:32.569Z,2.92
2022-12-13T06:56:59.084Z,1.83
2022-12-13T06:59:25.590Z,1.30
2022-12-13T07:01:52.094Z,1.98
2022-12-13T07:04:29.577Z,1.85
2022-12-13T07:07:01.215Z,1.35
2022-12-13T07:09:29.019Z,1.23
2022-12-13T07:11:55.599Z,1.52
2022-12-13T07:14:22.067Z,1.17
2022-12-13T07:16:48.563Z,1.25
2022-12-13T07:19:23.615Z,3.13
2022-12-13T07:21:51.415Z,0.90
2022-12-13T07:24:17.934Z,1.13
2022-12-13T07:26:44.452Z,1.42
2022-12-13T07:29:10.952Z,1.95
2022-12-13T07:31:37.566Z,1.25
2022-12-13T07:34:04.252Z,1.45
2022-12-13T07:36:30.753Z,1.15
2022-12-13T07:38:57.775Z,1.35
2022-12-13T07:41:24.862Z,1.98
2022-12-13T07:43:55.008Z,2.42
2022-12-13T07:46:31.959Z,2.35
2022-12-13T07:49:03.561Z,1.67
2022-12-13T07:51:30.110Z,2.75
2022-12-13T07:53:57.699Z,1.80
2022-12-13T07:56:24.193Z,1.80
2022-12-13T07:58:50.668Z,2.28
2022-12-13T08:01:23.091Z,2.88
2022-12-13T08:03:50.625Z,1.50
2022-12-13T08:06:17.113Z,2.42
2022-12-13T08:08:43.660Z,4.25
2022-12-13T08:11:11.396Z,3.45
2022-12-13T08:13:38.767Z,2.75
2022-12-13T08:16:26.188Z,2.70
2022-12-13T08:18:52.708Z,3.70
2022-12-13T08:21:53.551Z,3.63
2022-12-13T08:24:19.727Z,2.63
2022-12-13T08:26:46.225Z,2.22
2022-12-13T08:29:13.083Z,2.28
2022-12-13T08:31:50.162Z,3.03
2022-12-13T08:34:16.697Z,2.30
2022-12-13T08:36:43.207Z,3.75
2022-12-13T08:39:09.717Z,4.78
2022-12-13T08:41:39.243Z,4.18
2022-12-13T08:44:06.169Z,3.40
2022-12-13T08:46:32.757Z,2.85
2022-12-13T08:48:59.372Z,3.58
2022-12-13T08:51:30.882Z,2.35
2022-12-13T08:54:11.132Z,3.05
2022-12-13T08:56:38.052Z,4.13
2022-12-13T08:59:04.573Z,2.08
2022-12-13T09:01:31.061Z,4.00
2022-12-13T09:03:57.588Z,2.88
2022-12-13T09:06:24.045Z,3.53
2022-12-13T09:08:52.648Z,2.33
2022-12-13T09:11:20.809Z,3.60
2022-12-13T09:13:50.561Z,2.30
2022-12-13T09:16:23.313Z,1.80
2022-12-13T09:18:54.907Z,2.17
2022-12-13T09:21:31.410Z,2.80
2022-12-13T09:24:01.393Z,2.95
2022-12-13T09:26:28.743Z,2.60
2022-12-13T09:28:55.206Z,3.28
2022-12-13T09:31:22.121Z,3.55
2022-12-13T09:33:48.852Z,1.75
2022-12-13T09:36:16.922Z,3.10
2022-12-13T09:38:43.692Z,2.40
2022-12-13T09:41:28.872Z,2.63
2022-12-13T09:44:01.058Z,1.83
2022-12-13T09:46:30.246Z,3.35
2022-12-13T09:49:03.060Z,2.20
2022-12-13T09:51:39.657Z,2.45
2022-12-13T09:54:16.770Z,2.17
2022-12-13T09:56:43.267Z,1.52
2022-12-13T09:59:13.930Z,1.92
2022-12-13T10:01:40.516Z,3.63
2022-12-13T10:04:09.328Z,2.78
2022-12-13T10:06:36.779Z,3.50
2022-12-13T10:09:06.487Z,2.03
2022-12-13T10:11:33.161Z,3.27
2022-12-13T10:14:02.704Z,1.80
2022-12-13T10:16:36.467Z,1.77
2022-12-13T10:19:28.810Z,2.20
2022-12-13T10:22:01.490Z,1.77
2022-12-13T10:24:36.510Z,2.75
2022-12-13T10:27:14.771Z,2.85
2022-12-13T10:30:16.572Z,2.17
2022-12-13T10:32:45.936Z,2.63
2022-12-13T10:35:19.794Z,3.83
2022-12-13T10:37:46.329Z,2.40
2022-12-13T10:40:32.333Z,5.05
2022-12-13T10:43:11.547Z,2.72
2022-12-13T10:45:38.065Z,2.45
2022-12-13T10:48:04.732Z,2.85
2022-12-13T10:50:32.165Z,3.05
2022-12-13T10:52:59.577Z,3.55
2022-12-13T10:55:26.103Z,2.45
2022-12-13T10:57:53.394Z,4.88
2022-12-13T11:00:31.846Z,3.58
2022-12-13T11:02:58.426Z,3.30
2022-12-13T11:05:36.112Z,5.07
2022-12-13T11:08:12.504Z,2.80
2022-12-13T11:10:39.161Z,3.70
2022-12-13T11:13:07.126Z,3.53
2022-12-13T11:15:35.962Z,5.10
2022-12-13T11:18:04.924Z,2.67
2022-12-13T11:20:33.603Z,2.97
2022-12-13T11:23:11.260Z,2.50
2022-12-13T11:25:41.191Z,2.78
2022-12-13T11:28:26.236Z,2.92
2022-12-13T11:31:03.550Z,3.42
2022-12-13T11:33:48.311Z,2.95
2022-12-13T11:36:33.885Z,4.18
2022-12-13T11:39:18.466Z,3.38
2022-12-13T11:41:44.967Z,3.97
2022-12-13T11:44:17.660Z,4.88
2022-12-13T11:46:50.532Z,4.60
2022-12-13T11:49:18.222Z,3.72
2022-12-13T11:51:47.812Z,4.10
2022-12-13T11:54:24.092Z,4.40
2022-12-13T11:56:56.265Z,5.22
2022-12-13T11:59:39.480Z,5.85
2022-12-13T12:02:29.782Z,3.55
2022-12-13T12:05:00.607Z,4.17
2022-12-13T12:07:33.927Z,3.40
2022-12-13T12:10:10.697Z,2.90
2022-12-13T12:12:38.077Z,7.35
2022-12-13T12:15:33.730Z,4.82
2022-12-13T12:18:15.243Z,4.47
2022-12-13T12:20:56.713Z,3.95
2022-12-13T12:23:55.468Z,3.45
2022-12-13T12:26:24.735Z,4.18
2022-12-13T12:29:02.331Z,6.07
2022-12-13T12:31:50.673Z,4.85
2022-12-13T12:34:27.362Z,4.85
2022-12-13T12:37:09.997Z,7.63
2022-12-13T12:39:44.004Z,6.90
2022-12-13T12:42:22.304Z,8.18
2022-12-13T12:44:49.175Z,9.68
2022-12-13T12:50:22.338Z,8.02
2022-12-13T12:52:54.909Z,17.30
2022-12-13T12:55:37.839Z,8.98
2022-12-13T12:58:22.936Z,8.30
2022-12-13T13:01:08.469Z,15.05
2022-12-13T13:03:37.417Z,5.65
2022-12-13T13:06:09.756Z,5.70
2022-12-13T13:08:40.597Z,6.97
2022-12-13T13:11:24.559Z,6.00
2022-12-13T13:14:01.642Z,4.82
2022-12-13T13:16:36.569Z,8.23
2022-12-13T13:19:12.221Z,9.60
2022-12-13T13:21:43.707Z,9.98
2022-12-13T13:24:10.190Z,9.27
2022-12-13T13:26:40.700Z,9.15
2022-12-13T13:31:55.480Z,10.82
2022-12-13T13:34:27.721Z,10.43
2022-12-13T13:36:54.799Z,7.68
2022-12-13T13:39:33.295Z,7.35
2022-12-13T13:42:08.728Z,6.43
2022-12-13T13:44:35.300Z,7.30
2022-12-13T13:47:11.089Z,7.35
2022-12-13T13:49:39.602Z,6.32
2022-12-13T13:52:24.378Z,7.00
2022-12-13T13:55:09.461Z,6.22
2022-12-13T13:58:08.895Z,7.78
2022-12-13T14:00:34.467Z,7.68
2022-12-13T14:03:33.178Z,9.85
2022-12-13T14:06:06.446Z,5.97
2022-12-13T14:08:36.102Z,8.50
2022-12-13T14:11:05.541Z,6.10
2022-12-13T14:13:38.718Z,6.13
2022-12-13T14:16:27.808Z,12.05
2022-12-13T14:18:54.436Z,6.00
2022-12-13T14:21:34.457Z,6.38
2022-12-13T14:24:19.198Z,5.85
2022-12-13T14:26:54.456Z,6.22
2022-12-13T14:29:26.518Z,5.85
2022-12-13T14:31:53.108Z,7.53
2022-12-13T14:34:22.338Z,7.95
2022-12-13T14:36:58.903Z,6.03
2022-12-13T14:39:26.107Z,7.45
2022-12-13T14:41:57.136Z,5.80
2022-12-13T14:44:28.442Z,5.82
2022-12-13T14:47:15.277Z,6.90
2022-12-13T14:49:48.583Z,9.40
2022-12-13T14:52:27.140Z,9.30
2022-12-13T14:54:59.141Z,6.43
2022-12-13T14:57:26.874Z,8.43
2022-12-13T14:59:54.784Z,6.28
2022-12-13T15:02:30.796Z,9.75
2022-12-13T15:05:07.344Z,10.23
2022-12-13T15:07:33.911Z,9.15
2022-12-13T15:10:05.943Z,8.93
2022-12-13T15:12:32.452Z,6.82
2022-12-13T15:15:03.096Z,7.47
2022-12-13T15:17:34.083Z,8.23
2022-12-13T15:20:01.237Z,7.63
2022-12-13T15:22:29.138Z,16.38
2022-12-13T15:24:56.552Z,10.88
2022-12-13T15:27:23.215Z,13.77
2022-12-13T15:29:49.955Z,10.70
2022-12-13T15:32:18.145Z,9.20
2022-12-13T15:34:45.824Z,8.30
2022-12-13T15:37:28.254Z,10.55
2022-12-13T15:39:57.530Z,23.33
2022-12-13T15:42:29.972Z,14.52
2022-12-13T15:44:58.072Z,8.35
2022-12-13T15:47:27.733Z,10.43
2022-12-13T15:50:04.800Z,8.02
2022-12-13T15:52:36.033Z,8.38
2022-12-13T15:55:05.425Z,9.95
2022-12-13T15:57:32.941Z,8.77
2022-12-13T16:00:08.956Z,10.52
2022-12-13T16:02:35.637Z,10.50
2022-12-13T16:05:06.446Z,7.80
2022-12-13T16:07:34.770Z,9.68
2022-12-13T16:10:02.280Z,10.25
2022-12-13T16:12:33.348Z,8.20
2022-12-13T16:15:28.521Z,8.60
2022-12-13T16:18:26.704Z,8.38
2022-12-13T16:20:54.149Z,10.35
2022-12-13T16:23:26.847Z,9.60
2022-12-13T16:25:54.942Z,12.95
2022-12-13T16:28:25.926Z,8.80
2022-12-13T16:30:52.935Z,9.43
2022-12-13T16:33:27.521Z,8.50
2022-12-13T16:35:55.189Z,8.65
2022-12-13T16:38:26.332Z,8.23
2022-12-13T16:40:55.075Z,8.88
2022-12-13T16:43:27.824Z,9.90
2022-12-13T16:45:58.082Z,9.50
2022-12-13T16:48:25.381Z,9.18
2022-12-13T16:50:57.867Z,9.75
2022-12-13T16:53:25.199Z,9.63
2022-12-13T16:55:58.363Z,8.57
2022-12-13T16:58:25.264Z,9.98
2022-12-13T17:00:52.005Z,12.68
2022-12-13T17:03:26.407Z,11.13
2022-12-13T17:05:58.962Z,19.35
2022-12-13T17:08:25.684Z,11.93
2022-12-13T17:10:57.807Z,10.40
2022-12-13T17:13:25.564Z,10.00
2022-12-13T17:15:59.384Z,11.65
2022-12-13T17:18:26.539Z,9.60
2022-12-13T17:20:58.830Z,9.88
2022-12-13T17:23:26.238Z,9.05
2022-12-13T17:25:58.650Z,11.15
2022-12-13T17:28:25.785Z,10.85
2022-12-13T17:30:54.856Z,12.25
2022-12-13T17:33:22.700Z,9.73
2022-12-13T17:35:49.461Z,10.10
2022-12-13T17:38:16.017Z,8.98
2022-12-13T17:40:42.594Z,10.57
2022-12-13T17:43:24.136Z,9.90
2022-12-13T17:46:02.220Z,11.32
2022-12-13T17:48:34.033Z,8.95
2022-12-13T17:51:04.398Z,9.20
2022-12-13T17:53:31.177Z,9.23
2022-12-13T17:55:58.417Z,10.07
2022-12-13T17:58:25.770Z,9.32
2022-12-13T18:00:53.403Z,11.57
2022-12-13T18:03:20.453Z,12.05
2022-12-13T18:05:55.275Z,11.88
2022-12-13T18:08:21.800Z,14.27
2022-12-13T18:11:30.734Z,15.23
2022-12-13T18:13:44.829Z,14.10
2022-12-13T18:16:12.500Z,25.35
2022-12-13T18:18:39.412Z,15.18
2022-12-13T18:21:10.023Z,19.05
2022-12-13T18:23:37.028Z,20.35
2022-12-13T18:26:05.254Z,12.07
2022-12-13T18:28:31.976Z,13.30
2022-12-13T18:31:01.746Z,12.25
2022-12-13T18:33:28.629Z,14.55
2022-12-13T18:35:55.795Z,10.95
2022-12-13T18:38:22.369Z,10.75
2022-12-13T18:40:49.065Z,11.38
2022-12-13T18:43:15.519Z,12.70
2022-12-13T18:45:42.019Z,14.00
2022-12-13T18:48:08.478Z,12.23
2022-12-13T18:50:35.100Z,11.45
2022-12-13T18:53:01.659Z,22.40
2022-12-13T18:55:28.243Z,17.95
2022-12-13T18:57:54.841Z,11.95
2022-12-13T19:00:21.463Z,13.75
2022-12-13T19:02:48.013Z,13.85
2022-12-13T19:05:14.634Z,11.75
2022-12-13T19:07:41.295Z,16.23
2022-12-13T19:10:08.323Z,11.93
2022-12-13T19:12:35.004Z,11.18
2022-12-13T19:15:02.234Z,11.00
2022-12-13T19:17:28.794Z,12.80
2022-12-13T19:19:55.330Z,11.73
2022-12-13T19:22:21.874Z,10.32
2022-12-13T19:24:48.463Z,11.52
2022-12-13T19:27:15.229Z,12.07
2022-12-13T19:29:41.765Z,11.93
2022-12-13T19:32:08.323Z,13.32
2022-12-13T19:34:34.911Z,11.48
2022-12-13T19:37:06.106Z,12.30
2022-12-13T19:39:33.132Z,11.10
2022-12-13T19:41:59.774Z,11.52
2022-12-13T19:44:26.328Z,11.60
2022-12-13T19:46:52.978Z,11.48
2022-12-13T19:49:19.671Z,11.32
2022-12-13T19:51:46.262Z,10.73
2022-12-13T19:54:12.876Z,10.80
2022-12-13T19:56:39.448Z,12.98
2022-12-13T19:59:05.907Z,12.18
2022-12-13T20:01:32.954Z,11.77
2022-12-13T20:03:59.506Z,12.98
2022-12-13T20:06:26.074Z,12.45
2022-12-13T20:08:52.617Z,12.73
2022-12-13T20:11:20.704Z,14.15
2022-12-13T20:13:48.042Z,9.52
2022-12-13T20:16:18.728Z,11.57
2022-12-13T20:18:45.720Z,9.25
2022-12-13T20:21:13.757Z,6.93
2022-12-13T20:23:41.454Z,6.70
2022-12-13T20:26:16.946Z,5.30
2022-12-13T20:28:43.484Z,6.15
2022-12-13T20:31:11.586Z,4.90
2022-12-13T20:33:38.631Z,4.72
2022-12-13T20:38:56.553Z,3.78
2022-12-13T20:41:23.700Z,3.60
2022-12-13T20:43:54.236Z,3.85
2022-12-13T20:46:21.228Z,3.13
2022-12-13T20:48:48.532Z,3.70
2022-12-13T20:51:17.028Z,3.80
2022-12-13T20:53:45.263Z,3.42
2022-12-13T20:56:13.463Z,3.13
2022-12-13T20:58:40.526Z,2.72
2022-12-13T21:01:07.518Z,3.65
2022-12-13T21:03:34.354Z,4.82
2022-12-13T21:06:00.962Z,5.32
2022-12-13T21:08:27.461Z,3.60
2022-12-13T21:11:01.880Z,4.50
2022-12-13T21:13:31.475Z,4.43
2022-12-13T21:16:05.097Z,3.70
2022-12-13T21:18:31.635Z,3.85
2022-12-13T21:20:58.119Z,5.90
2022-12-13T21:23:25.073Z,4.38
2022-12-13T21:25:51.951Z,5.65
2022-12-13T21:28:18.449Z,6.25
2022-12-13T21:30:44.972Z,3.78
2022-12-13T21:33:11.526Z,3.63
2022-12-13T21:35:38.139Z,4.28
2022-12-13T21:38:05.629Z,7.15
2022-12-13T21:40:32.261Z,3.90
2022-12-13T21:42:58.736Z,3.58
2022-12-13T21:45:25.306Z,3.75
2022-12-13T21:47:51.819Z,3.35
2022-12-13T21:50:18.322Z,4.13
2022-12-13T21:52:49.495Z,4.57
2022-12-13T21:55:38.489Z,5.55
2022-12-13T21:58:07.536Z,4.15
2022-12-13T22:00:35.219Z,4.28
2022-12-13T22:03:01.745Z,3.75
2022-12-13T22:05:28.240Z,6.85
2022-12-13T22:07:54.842Z,12.60
2022-12-13T22:10:21.426Z,4.03
2022-12-13T22:12:47.929Z,3.97
2022-12-13T22:15:15.570Z,4.43
2022-12-13T22:17:42.765Z,4.93
2022-12-13T22:20:11.015Z,4.30
2022-12-13T22:22:38.315Z,3.20
2022-12-13T22:25:05.449Z,3.25
2022-12-13T22:27:32.047Z,3.75
2022-12-13T22:29:58.694Z,4.68
2022-12-13T22:32:26.095Z,4.05
2022-12-13T22:34:52.748Z,3.78
2022-12-13T22:37:19.507Z,3.88
2022-12-13T22:39:46.268Z,6.38
2022-12-13T22:42:12.860Z,6.22
2022-12-13T22:44:39.329Z,4.82
2022-12-13T22:47:05.811Z,5.72
2022-12-13T22:49:32.393Z,3.33
2022-12-13T22:51:58.966Z,4.60
2022-12-13T22:54:25.518Z,3.20
2022-12-13T22:56:52.301Z,3.70
2022-12-13T22:59:18.893Z,4.50
2022-12-13T23:01:47.036Z,6.97
2022-12-13T23:04:14.662Z,5.63
2022-12-13T23:06:41.585Z,3.92
2022-12-13T23:09:11.368Z,4.35
2022-12-13T23:11:37.989Z,4.75
2022-12-13T23:14:06.001Z,3.67
2022-12-13T23:16:33.130Z,3.28
2022-12-13T23:19:31.680Z,4.30
2022-12-13T23:21:48.579Z,4.88
2022-12-13T23:24:15.477Z,5.25
2022-12-13T23:26:41.975Z,5.13
2022-12-13T23:29:09.507Z,3.65
2022-12-13T23:31:37.246Z,3.58
2022-12-13T23:34:03.863Z,10.02
2022-12-13T23:36:30.802Z,5.25
2022-12-13T23:39:01.211Z,4.22
2022-12-13T23:41:33.525Z,5.88
2022-12-13T23:44:00.596Z,4.10
2022-12-13T23:46:28.770Z,3.35
2022-12-13T23:48:55.602Z,3.80
2022-12-13T23:51:22.113Z,3.70
2022-12-13T23:53:48.871Z,6.43
2022-12-13T23:56:16.101Z,4.57
2022-12-13T23:58:43.155Z,5.05
